createdAt,value
2019-05-02T00:01:25.001Z,98443.78
2019-05-02T00:03:55.994Z,98432.67
2019-05-02T00:06:27.459Z,98436.20
2019-05-02T00:09:18.197Z,98429.55
2019-05-02T00:11:58.586Z,98429.41
2019-05-02T00:14:21.919Z,98425.15
2019-05-02T00:16:52.819Z,98423.35
2019-05-02T00:19:23.882Z,98421.28
2019-05-02T00:22:17.122Z,98421.78
2019-05-02T00:24:46.178Z,98425.33
2019-05-02T00:27:17.232Z,98415.84
2019-05-02T00:29:48.048Z,98411.94
2019-05-02T00:32:22.457Z,98412.08
2019-05-02T00:34:51.393Z,98400.66
2019-05-02T00:37:24.605Z,98401.34
2019-05-02T00:39:54.778Z,98403.38
2019-05-02T00:42:25.563Z,98409.60
2019-05-02T00:44:57.013Z,98407.49
2019-05-02T00:47:42.313Z,98415.70
2019-05-02T00:50:13.843Z,98414.55
2019-05-02T00:52:44.588Z,98412.69
2019-05-02T00:55:15.699Z,98415.84
2019-05-02T00:57:50.791Z,98415.61
2019-05-02T01:00:19.832Z,98408.95
2019-05-02T01:02:56.928Z,98404.44
2019-05-02T01:05:46.753Z,98412.66
2019-05-02T01:08:17.421Z,98405.58
2019-05-02T01:10:52.132Z,98398.19
2019-05-02T01:13:20.736Z,98395.13
2019-05-02T01:15:51.484Z,98398.99
2019-05-02T01:18:24.418Z,98393.20
2019-05-02T01:20:58.198Z,98391.94
2019-05-02T01:23:29.501Z,98382.42
2019-05-02T01:26:00.447Z,98383.39
2019-05-02T01:28:54.282Z,98378.88
2019-05-02T01:31:29.266Z,98371.00
2019-05-02T01:34:17.979Z,98376.48
2019-05-02T01:36:57.186Z,98376.48
2019-05-02T01:39:27.997Z,98366.42
2019-05-02T01:41:59.968Z,98365.06
2019-05-02T01:44:36.146Z,98360.06
2019-05-02T01:47:03.885Z,98361.91
2019-05-02T01:49:34.516Z,98356.36
2019-05-02T01:52:05.316Z,98351.45
2019-05-02T01:54:36.253Z,98352.49
2019-05-02T01:57:08.706Z,98349.30
2019-05-02T01:59:39.508Z,98356.43
2019-05-02T02:02:10.293Z,98349.30
2019-05-02T02:04:41.108Z,98352.34
2019-05-02T02:07:14.968Z,98347.91
2019-05-02T02:09:45.841Z,98347.92
2019-05-02T02:12:16.732Z,98349.52
2019-05-02T02:14:48.166Z,98349.73
2019-05-02T02:17:19.950Z,98342.83
2019-05-02T02:19:55.500Z,98344.45
2019-05-02T02:22:41.656Z,98348.05
2019-05-02T02:25:36.262Z,98346.69
2019-05-02T02:28:05.750Z,98340.57
2019-05-02T02:30:36.579Z,98334.30
2019-05-02T02:33:09.472Z,98332.81
2019-05-02T02:35:49.582Z,98331.69
2019-05-02T02:38:12.577Z,98334.72
2019-05-02T02:40:43.397Z,98328.14
2019-05-02T02:43:32.891Z,98326.38
2019-05-02T02:46:00.331Z,98327.31
2019-05-02T02:48:33.897Z,98324.75
2019-05-02T02:51:04.354Z,98322.87
2019-05-02T02:53:35.387Z,98321.42
2019-05-02T02:56:08.557Z,98324.06
2019-05-02T02:58:45.782Z,98325.34
2019-05-02T03:01:12.066Z,98326.80
2019-05-02T03:03:43.138Z,98323.91
2019-05-02T03:06:13.989Z,98321.03
2019-05-02T03:08:48.569Z,98320.88
2019-05-02T03:11:23.843Z,98327.94
2019-05-02T03:14:06.093Z,98326.77
2019-05-02T03:16:32.357Z,98325.34
2019-05-02T03:19:03.281Z,98329.44
2019-05-02T03:21:34.228Z,98324.70
2019-05-02T03:24:05.756Z,98322.87
2019-05-02T03:26:36.776Z,98333.80
2019-05-02T03:29:07.584Z,98327.91
2019-05-02T03:31:38.703Z,98322.77
2019-05-02T03:34:09.440Z,98327.53
2019-05-02T03:36:41.550Z,98329.61
2019-05-02T03:39:14.912Z,98325.03
2019-05-02T03:41:45.061Z,98319.08
2019-05-02T03:44:24.818Z,98317.09
2019-05-02T03:46:54.246Z,98320.69
2019-05-02T03:49:21.389Z,98316.67
2019-05-02T03:51:55.909Z,98318.08
2019-05-02T03:54:24.717Z,98317.27
2019-05-02T03:56:55.430Z,98321.63
2019-05-02T03:59:37.389Z,98310.61
2019-05-02T04:01:59.524Z,98313.95
2019-05-02T04:04:31.231Z,98319.22
2019-05-02T04:07:03.489Z,98319.88
2019-05-02T04:09:42.584Z,98318.02
2019-05-02T04:12:18.890Z,98312.48
2019-05-02T04:14:42.418Z,98311.63
2019-05-02T04:17:13.353Z,98314.77
2019-05-02T04:19:44.278Z,98312.66
2019-05-02T04:22:16.127Z,98312.76
2019-05-02T04:24:54.642Z,98312.70
2019-05-02T04:27:19.756Z,98309.68
2019-05-02T04:29:50.708Z,98316.90
2019-05-02T04:32:21.526Z,98309.17
2019-05-02T04:34:55.617Z,98320.00
2019-05-02T04:37:25.203Z,98317.44
2019-05-02T04:39:59.082Z,98322.56
2019-05-02T04:42:29.374Z,98316.64
2019-05-02T04:45:20.669Z,98317.20
2019-05-02T04:47:33.004Z,98313.47
2019-05-02T04:50:07.659Z,98322.86
2019-05-02T04:52:38.390Z,98322.13
2019-05-02T04:55:20.031Z,98321.45
2019-05-02T04:57:47.181Z,98328.41
2019-05-02T05:00:35.599Z,98323.66
2019-05-02T05:03:15.294Z,98330.27
2019-05-02T05:05:40.329Z,98324.83
2019-05-02T05:08:11.473Z,98331.22
2019-05-02T05:10:45.059Z,98330.88
2019-05-02T05:13:19.740Z,98324.44
2019-05-02T05:15:51.199Z,98329.86
2019-05-02T05:18:19.933Z,98315.79
2019-05-02T05:20:54.083Z,98325.99
2019-05-02T05:23:41.972Z,98323.77
2019-05-02T05:26:12.746Z,98325.92
2019-05-02T05:28:44.511Z,98319.25
2019-05-02T05:31:23.410Z,98317.72
2019-05-02T05:33:48.313Z,98320.44
2019-05-02T05:36:20.067Z,98313.39
2019-05-02T05:38:52.017Z,98305.30
2019-05-02T05:41:23.331Z,98309.18
2019-05-02T05:43:54.387Z,98308.09
2019-05-02T05:46:25.228Z,98313.59
2019-05-02T05:48:57.823Z,98303.48
2019-05-02T05:51:28.558Z,98291.66
2019-05-02T05:54:03.017Z,98301.95
2019-05-02T05:56:32.525Z,98303.30
2019-05-02T05:59:04.474Z,98301.20
2019-05-02T06:01:36.427Z,98303.05
2019-05-02T06:04:08.704Z,98313.02
2019-05-02T06:06:39.450Z,98306.99
2019-05-02T06:09:13.762Z,98286.30
2019-05-02T06:11:43.477Z,98299.92
2019-05-02T06:14:14.309Z,98298.44
2019-05-02T06:16:46.660Z,98292.41
2019-05-02T06:19:19.133Z,98297.92
2019-05-02T06:21:50.093Z,98305.14
2019-05-02T06:24:20.992Z,98288.72
2019-05-02T06:26:51.992Z,98293.98
2019-05-02T06:29:22.868Z,98303.27
2019-05-02T06:31:53.797Z,98294.84
2019-05-02T06:34:24.816Z,98286.87
2019-05-02T06:36:55.754Z,98278.51
2019-05-02T06:39:27.162Z,98297.88
2019-05-02T06:41:59.195Z,98296.72
2019-05-02T06:44:30.083Z,98287.05
2019-05-02T06:47:04.240Z,98290.08
2019-05-02T06:49:33.948Z,98291.39
2019-05-02T06:52:05.047Z,98295.24
2019-05-02T06:54:35.789Z,98284.73
2019-05-02T06:57:06.715Z,98286.06
2019-05-02T06:59:37.582Z,98281.80
2019-05-02T07:02:08.747Z,98278.70
2019-05-02T07:04:39.533Z,98276.86
2019-05-02T07:07:13.185Z,98285.00
2019-05-02T07:09:44.413Z,98279.00
2019-05-02T07:12:18.538Z,98275.90
2019-05-02T07:14:56.156Z,98278.91
2019-05-02T07:17:42.194Z,98270.34
2019-05-02T07:20:14.158Z,98273.76
2019-05-02T07:22:45.674Z,98279.02
2019-05-02T07:25:19.190Z,98256.59
2019-05-02T07:27:51.631Z,98259.74
2019-05-02T07:30:23.371Z,98260.28
2019-05-02T07:32:56.403Z,98243.13
2019-05-02T07:35:28.038Z,98259.84
2019-05-02T07:38:05.217Z,98252.59
2019-05-02T07:40:41.648Z,98263.78
2019-05-02T07:43:13.476Z,98264.63
2019-05-02T07:45:46.383Z,98252.52
2019-05-02T07:48:18.963Z,98237.84
2019-05-02T07:50:50.074Z,98256.73
2019-05-02T07:53:21.026Z,98263.31
2019-05-02T07:55:52.033Z,98269.20
2019-05-02T07:58:23.088Z,98260.22
2019-05-02T08:00:53.967Z,98266.79
2019-05-02T08:03:29.477Z,98257.72
2019-05-02T08:05:58.623Z,98264.34
2019-05-02T08:08:31.482Z,98255.66
2019-05-02T08:11:03.286Z,98253.13
2019-05-02T08:13:34.288Z,98254.48
2019-05-02T08:16:05.162Z,98262.64
2019-05-02T08:18:36.223Z,98271.27
2019-05-02T08:21:10.661Z,98259.50
2019-05-02T08:23:42.998Z,98262.91
2019-05-02T08:26:16.387Z,98257.30
2019-05-02T08:28:58.396Z,98259.12
2019-05-02T08:31:30.341Z,98274.35
2019-05-02T08:34:05.237Z,98271.37
2019-05-02T08:36:35.299Z,98266.30
2019-05-02T08:39:07.998Z,98271.95
2019-05-02T08:41:38.857Z,98272.09
2019-05-02T08:44:09.592Z,98259.61
2019-05-02T08:46:40.359Z,98264.04
2019-05-02T08:49:18.716Z,98254.45
2019-05-02T08:51:46.943Z,98243.24
2019-05-02T08:54:17.728Z,98259.80
2019-05-02T08:56:53.221Z,98266.59
2019-05-02T08:59:24.458Z,98246.36
2019-05-02T09:01:56.190Z,98260.65
2019-05-02T09:04:29.036Z,98265.00
2019-05-02T09:07:01.579Z,98265.86
2019-05-02T09:09:32.569Z,98239.36
2019-05-02T09:12:12.191Z,98264.23
2019-05-02T09:14:36.404Z,98263.55
2019-05-02T09:17:13.513Z,98257.15
2019-05-02T09:19:40.155Z,98267.35
2019-05-02T09:22:13.309Z,98262.72
2019-05-02T09:24:44.970Z,98255.27
2019-05-02T09:27:17.140Z,98253.93
2019-05-02T09:29:48.337Z,98251.20
2019-05-02T09:32:24.874Z,98245.91
2019-05-02T09:34:56.657Z,98240.80
2019-05-02T09:37:25.402Z,98258.56
2019-05-02T09:39:56.513Z,98250.03
2019-05-02T09:42:27.606Z,98260.92
2019-05-02T09:44:59.014Z,98255.27
2019-05-02T09:47:33.217Z,98234.23
2019-05-02T09:50:10.121Z,98235.68
2019-05-02T09:52:44.162Z,98254.63
2019-05-02T09:55:15.786Z,98241.34
2019-05-02T09:57:46.622Z,98235.60
2019-05-02T10:00:36.143Z,98242.55
2019-05-02T10:03:07.098Z,98230.98
2019-05-02T10:05:37.926Z,98233.20
2019-05-02T10:08:13.062Z,98233.28
2019-05-02T10:10:45.876Z,98223.52
2019-05-02T10:13:14.847Z,98231.16
2019-05-02T10:15:46.477Z,98232.95
2019-05-02T10:18:24.080Z,98228.55
2019-05-02T10:20:52.267Z,98227.63
2019-05-02T10:23:23.609Z,98219.98
2019-05-02T10:25:55.183Z,98214.50
2019-05-02T10:28:26.949Z,98218.99
2019-05-02T10:31:02.099Z,98222.91
2019-05-02T10:33:37.443Z,98220.39
2019-05-02T10:36:05.963Z,98207.69
2019-05-02T10:38:37.110Z,98214.70
2019-05-02T10:41:08.488Z,98208.56
2019-05-02T10:43:39.892Z,98212.02
2019-05-02T10:46:23.055Z,98218.66
2019-05-02T10:49:01.940Z,98209.37
2019-05-02T10:51:36.461Z,98205.03
2019-05-02T10:54:09.118Z,98205.84
2019-05-02T10:56:39.996Z,98197.99
2019-05-02T10:59:11.786Z,98194.03
2019-05-02T11:02:02.538Z,98183.92
2019-05-02T11:04:36.489Z,98187.80
2019-05-02T11:07:07.464Z,98180.69
2019-05-02T11:09:38.323Z,98180.16
2019-05-02T11:12:11.868Z,98178.38
2019-05-02T11:14:55.573Z,98191.06
2019-05-02T11:17:32.358Z,98191.14
2019-05-02T11:20:05.674Z,98185.05
2019-05-02T11:22:36.595Z,98193.29
2019-05-02T11:25:08.117Z,98206.67
2019-05-02T11:27:39.585Z,98197.28
2019-05-02T11:30:16.884Z,98190.89
2019-05-02T11:32:46.027Z,98189.98
2019-05-02T11:35:16.975Z,98189.20
2019-05-02T11:37:47.977Z,98187.83
2019-05-02T11:40:19.233Z,98196.50
2019-05-02T11:42:52.062Z,98199.97
2019-05-02T11:45:22.742Z,98190.55
2019-05-02T11:47:56.012Z,98188.67
2019-05-02T11:50:26.621Z,98180.88
2019-05-02T11:52:58.789Z,98189.14
2019-05-02T11:55:31.813Z,98190.95
2019-05-02T11:58:07.819Z,98175.62
2019-05-02T12:00:35.044Z,98186.39
2019-05-02T12:03:22.767Z,98180.65
2019-05-02T12:05:53.643Z,98193.41
2019-05-02T12:08:24.598Z,98185.57
2019-05-02T12:10:55.539Z,98183.03
2019-05-02T12:13:26.343Z,98166.63
2019-05-02T12:15:57.242Z,98187.97
2019-05-02T12:18:28.127Z,98172.05
2019-05-02T12:20:59.368Z,98180.73
2019-05-02T12:23:32.056Z,98191.55
2019-05-02T12:26:03.634Z,98173.25
2019-05-02T12:28:34.599Z,98171.08
2019-05-02T12:31:08.077Z,98181.95
2019-05-02T12:33:42.645Z,98175.34
2019-05-02T12:36:14.383Z,98178.10
2019-05-02T12:38:45.203Z,98187.77
2019-05-02T12:41:21.994Z,98186.66
2019-05-02T12:43:53.961Z,98179.33
2019-05-02T12:46:28.528Z,98173.56
2019-05-02T12:49:00.082Z,98188.30
2019-05-02T12:51:32.588Z,98197.44
2019-05-02T12:54:03.254Z,98181.77
2019-05-02T12:56:35.093Z,98186.17
2019-05-02T12:59:07.169Z,98186.72
2019-05-02T13:01:37.981Z,98188.59
2019-05-02T13:04:12.433Z,98180.72
2019-05-02T13:06:45.413Z,98179.48
2019-05-02T13:09:16.818Z,98167.20
2019-05-02T13:11:53.263Z,98163.98
2019-05-02T13:14:27.274Z,98173.06
2019-05-02T13:17:03.857Z,98170.83
2019-05-02T13:19:40.181Z,98173.86
2019-05-02T13:22:24.520Z,98166.66
2019-05-02T13:25:02.306Z,98175.48
2019-05-02T13:27:43.379Z,98156.47
2019-05-02T13:30:09.169Z,98157.28
2019-05-02T13:32:42.742Z,98160.59
2019-05-02T13:35:34.420Z,98151.99
2019-05-02T13:38:09.149Z,98156.53
2019-05-02T13:40:44.416Z,98170.10
2019-05-02T13:43:16.100Z,98162.23
2019-05-02T13:46:02.229Z,98160.46
2019-05-02T13:48:34.147Z,98157.36
2019-05-02T13:51:05.366Z,98165.59
2019-05-02T13:53:40.082Z,98167.00
2019-05-02T13:56:29.733Z,98159.35
2019-05-02T13:59:02.603Z,98158.92
2019-05-02T14:01:34.013Z,98167.34
2019-05-02T14:04:10.152Z,98160.31
2019-05-02T14:06:38.110Z,98155.23
2019-05-02T14:09:32.361Z,98170.59
2019-05-02T14:12:08.734Z,98165.83
2019-05-02T14:14:39.297Z,98163.76
2019-05-02T14:17:11.715Z,98160.58
2019-05-02T14:19:43.859Z,98162.30
2019-05-02T14:22:15.607Z,98167.83
2019-05-02T14:24:46.957Z,98162.98
2019-05-02T14:27:22.216Z,98159.49
2019-05-02T14:29:56.449Z,98159.06
2019-05-02T14:32:27.908Z,98158.96
2019-05-02T14:35:18.719Z,98158.49
2019-05-02T14:38:09.528Z,98146.98
2019-05-02T14:41:03.023Z,98147.77
2019-05-02T14:43:54.025Z,98145.59
2019-05-02T14:46:34.220Z,98154.46
2019-05-02T14:49:02.730Z,98147.11
2019-05-02T14:51:36.603Z,98148.31
2019-05-02T14:54:08.613Z,98144.38
2019-05-02T14:56:47.781Z,98146.45
2019-05-02T14:59:20.006Z,98155.27
2019-05-02T15:01:58.017Z,98158.85
2019-05-02T15:04:27.382Z,98156.14
2019-05-02T15:06:58.121Z,98153.53
2019-05-02T15:09:29.013Z,98153.91
2019-05-02T15:12:02.412Z,98156.02
2019-05-02T15:14:35.503Z,98156.94
2019-05-02T15:17:07.813Z,98151.64
2019-05-02T15:19:38.664Z,98157.73
2019-05-02T15:22:09.418Z,98144.30
2019-05-02T15:24:42.246Z,98156.53
2019-05-02T15:27:17.502Z,98143.75
2019-05-02T15:29:45.695Z,98147.08
2019-05-02T15:32:25.557Z,98150.61
2019-05-02T15:35:10.338Z,98142.69
2019-05-02T15:37:41.980Z,98148.70
2019-05-02T15:42:56.718Z,98139.53
2019-05-02T15:45:25.498Z,98136.58
2019-05-02T15:47:56.423Z,98141.67
2019-05-02T15:50:27.551Z,98148.17
2019-05-02T15:53:09.741Z,98141.16
2019-05-02T15:55:39.360Z,98141.53
2019-05-02T15:58:25.934Z,98135.27
2019-05-02T16:01:04.952Z,98139.58
2019-05-02T16:03:54.688Z,98133.52
2019-05-02T16:06:30.808Z,98129.06
2019-05-02T16:08:58.133Z,98128.09
2019-05-02T16:11:28.979Z,98123.63
2019-05-02T16:13:59.818Z,98120.55
2019-05-02T16:16:32.052Z,98113.14
2019-05-02T16:19:03.203Z,98119.57
2019-05-02T16:21:43.245Z,98126.06
2019-05-02T16:24:33.019Z,98116.02
2019-05-02T16:27:03.893Z,98126.02
2019-05-02T16:29:34.694Z,98122.09
2019-05-02T16:32:24.673Z,98119.36
2019-05-02T16:34:58.113Z,98107.62
2019-05-02T16:37:28.933Z,98118.36
2019-05-02T16:39:59.898Z,98121.44
2019-05-02T16:42:32.698Z,98117.02
2019-05-02T16:45:03.323Z,98114.34
2019-05-02T16:47:34.254Z,98105.05
2019-05-02T16:50:08.973Z,98116.23
2019-05-02T16:52:43.804Z,98118.65
2019-05-02T16:55:21.067Z,98117.95
2019-05-02T16:57:47.258Z,98117.00
2019-05-02T17:00:22.774Z,98117.80
2019-05-02T17:02:54.005Z,98121.60
2019-05-02T17:05:24.792Z,98116.52
2019-05-02T17:08:18.928Z,98126.33
2019-05-02T17:10:53.746Z,98128.34
2019-05-02T17:13:27.584Z,98124.98
2019-05-02T17:15:56.348Z,98120.50
2019-05-02T17:18:27.268Z,98120.11
2019-05-02T17:20:58.218Z,98120.33
2019-05-02T17:23:29.233Z,98127.94
2019-05-02T17:26:01.582Z,98124.80
2019-05-02T17:28:32.564Z,98128.47
2019-05-02T17:31:03.465Z,98127.86
2019-05-02T17:33:34.662Z,98137.69
2019-05-02T17:36:05.903Z,98136.69
2019-05-02T17:38:36.553Z,98137.90
2019-05-02T17:41:07.987Z,98146.92
2019-05-02T17:43:42.233Z,98151.36
2019-05-02T17:46:18.354Z,98152.38
2019-05-02T17:48:47.640Z,98146.41
2019-05-02T17:51:37.886Z,98144.00
2019-05-02T17:54:12.000Z,98146.34
2019-05-02T17:56:44.103Z,98150.08
2019-05-02T17:59:16.972Z,98145.44
2019-05-02T18:01:50.238Z,98150.39
2019-05-02T18:04:22.603Z,98150.63
2019-05-02T18:06:55.226Z,98151.72
2019-05-02T18:09:31.616Z,98152.14
2019-05-02T18:12:01.574Z,98158.09
2019-05-02T18:14:33.404Z,98161.39
2019-05-02T18:17:04.672Z,98157.24
2019-05-02T18:19:36.195Z,98157.38
2019-05-02T18:22:21.084Z,98157.28
2019-05-02T18:24:46.401Z,98159.50
2019-05-02T18:27:22.214Z,98167.56
2019-05-02T18:29:53.245Z,98176.09
2019-05-02T18:32:26.086Z,98173.91
2019-05-02T18:35:01.285Z,98178.25
2019-05-02T18:37:29.238Z,98179.09
2019-05-02T18:40:00.053Z,98179.87
2019-05-02T18:42:31.799Z,98181.92
2019-05-02T18:45:02.760Z,98186.34
2019-05-02T18:47:34.288Z,98190.02
2019-05-02T18:50:06.205Z,98202.30
2019-05-02T18:52:43.205Z,98195.45
2019-05-02T18:55:17.143Z,98203.42
2019-05-02T18:57:47.968Z,98198.23
2019-05-02T19:00:19.778Z,98197.27
2019-05-02T19:02:54.628Z,98196.38
2019-05-02T19:05:26.704Z,98200.78
2019-05-02T19:07:58.578Z,98202.77
2019-05-02T19:10:32.206Z,98203.92
2019-05-02T19:13:06.069Z,98203.77
2019-05-02T19:15:39.709Z,98200.46
2019-05-02T19:18:17.727Z,98197.83
2019-05-02T19:21:04.560Z,98191.25
2019-05-02T19:23:42.317Z,98193.84
2019-05-02T19:26:15.420Z,98187.98
2019-05-02T19:29:08.619Z,98186.12
2019-05-02T19:31:47.257Z,98184.02
2019-05-02T19:34:22.872Z,98186.70
2019-05-02T19:36:57.812Z,98182.80
2019-05-02T19:39:33.676Z,98185.17
2019-05-02T19:42:06.642Z,98183.55
2019-05-02T19:44:42.229Z,98186.63
2019-05-02T19:47:22.959Z,98188.41
2019-05-02T19:49:54.984Z,98187.52
2019-05-02T19:52:40.506Z,98184.47
2019-05-02T19:55:19.424Z,98181.70
2019-05-02T19:57:44.613Z,98189.31
2019-05-02T20:00:22.636Z,98184.88
2019-05-02T20:02:53.778Z,98199.42
2019-05-02T20:05:26.373Z,98197.38
2019-05-02T20:07:58.965Z,98200.97
2019-05-02T20:10:31.917Z,98198.38
2019-05-02T20:13:12.786Z,98199.28
2019-05-02T20:15:49.720Z,98197.34
2019-05-02T20:18:22.667Z,98194.44
2019-05-02T20:21:23.407Z,98188.61
2019-05-02T20:23:47.016Z,98180.55
2019-05-02T20:26:21.981Z,98187.97
2019-05-02T20:28:56.987Z,98181.55
2019-05-02T20:31:28.851Z,98181.72
2019-05-02T20:34:03.297Z,98179.37
2019-05-02T20:36:34.343Z,98177.60
2019-05-02T20:39:07.708Z,98176.06
2019-05-02T20:41:42.100Z,98179.45
2019-05-02T20:44:13.083Z,98175.81
2019-05-02T20:46:46.155Z,98173.67
2019-05-02T20:49:20.411Z,98172.77
2019-05-02T20:51:51.930Z,98184.77
2019-05-02T20:54:24.425Z,98185.14
2019-05-02T20:56:55.653Z,98187.59
2019-05-02T20:59:26.677Z,98180.95
2019-05-02T21:02:08.341Z,98180.60
2019-05-02T21:04:39.288Z,98185.69
2019-05-02T21:07:17.564Z,98175.95
2019-05-02T21:10:07.149Z,98182.43
2019-05-02T21:12:37.880Z,98173.86
2019-05-02T21:15:09.562Z,98178.64
2019-05-02T21:17:42.194Z,98178.78
2019-05-02T21:20:15.589Z,98171.37
2019-05-02T21:22:46.972Z,98174.83
2019-05-02T21:25:17.611Z,98176.67
2019-05-02T21:27:49.065Z,98180.78
2019-05-02T21:30:27.258Z,98185.92
2019-05-02T21:32:58.931Z,98179.97
2019-05-02T21:35:31.925Z,98185.69
2019-05-02T21:38:02.713Z,98178.61
2019-05-02T21:40:33.632Z,98181.75
2019-05-02T21:43:04.388Z,98179.34
2019-05-02T21:45:35.128Z,98174.52
2019-05-02T21:48:06.113Z,98169.95
2019-05-02T21:50:43.553Z,98161.91
2019-05-02T21:53:22.240Z,98162.77
2019-05-02T21:56:09.688Z,98158.99
2019-05-02T21:58:42.761Z,98153.64
2019-05-02T22:01:15.048Z,98158.79
2019-05-02T22:03:46.352Z,98157.17
2019-05-02T22:06:17.902Z,98153.97
2019-05-02T22:08:48.646Z,98145.09
2019-05-02T22:11:20.094Z,98151.04
2019-05-02T22:13:51.664Z,98145.56
2019-05-02T22:16:23.202Z,98143.02
2019-05-02T22:18:54.219Z,98143.81
2019-05-02T22:21:26.237Z,98142.67
2019-05-02T22:24:08.986Z,98145.22
2019-05-02T22:26:32.904Z,98145.97
2019-05-02T22:29:04.087Z,98148.69
2019-05-02T22:31:37.628Z,98146.36
2019-05-02T22:34:08.799Z,98140.80
2019-05-02T22:36:42.904Z,98154.63
2019-05-02T22:39:35.275Z,98151.73
2019-05-02T22:42:06.548Z,98151.95
2019-05-02T22:44:37.543Z,98143.61
2019-05-02T22:47:08.486Z,98144.26
2019-05-02T22:49:39.638Z,98139.45
2019-05-02T22:52:12.463Z,98141.09
2019-05-02T22:54:43.296Z,98140.92
2019-05-02T22:57:14.450Z,98139.47
2019-05-02T22:59:45.247Z,98145.83
2019-05-02T23:02:17.239Z,98146.57
2019-05-02T23:04:49.876Z,98143.34
2019-05-02T23:07:22.172Z,98140.61
2019-05-02T23:09:54.566Z,98136.28
2019-05-02T23:12:25.908Z,98134.18
2019-05-02T23:14:56.898Z,98131.79
2019-05-02T23:17:27.843Z,98132.59
2019-05-02T23:19:58.639Z,98140.16
2019-05-02T23:22:29.818Z,98133.01
2019-05-02T23:25:19.558Z,98137.41
2019-05-02T23:27:53.854Z,98137.18
2019-05-02T23:30:25.410Z,98131.46
2019-05-02T23:32:56.274Z,98123.33
2019-05-02T23:35:27.589Z,98113.97
2019-05-02T23:37:58.597Z,98119.73
2019-05-02T23:40:29.963Z,98119.89
2019-05-02T23:43:01.963Z,98120.39
2019-05-02T23:45:33.967Z,98121.68
2019-05-02T23:48:05.263Z,98122.86
2019-05-02T23:50:36.220Z,98128.72
2019-05-02T23:53:10.088Z,98118.29
2019-05-02T23:55:42.589Z,98116.53
2019-05-02T23:58:13.495Z,98122.12
